sensor_id;sensor_type;location;lat;lon;timestamp;pressure;altitude;pressure_sealevel;temperature;humidity
19811;BME280;10065;49.632;8.346;2023-01-31T00:01:22;101561.34;;;6.72;71.77
19811;BME280;10065;49.632;8.346;2023-01-31T00:03:51;101563.81;;;6.75;71.72
19811;BME280;10065;49.632;8.346;2023-01-31T00:06:22;101555.63;;;6.65;71.78
19811;BME280;10065;49.632;8.346;2023-01-31T00:08:51;101564.84;;;6.72;71.64
19811;BME280;10065;49.632;8.346;2023-01-31T00:11:22;101566.13;;;6.79;71.40
19811;BME280;10065;49.632;8.346;2023-01-31T00:13:52;101567.19;;;6.77;71.38
19811;BME280;10065;49.632;8.346;2023-01-31T00:16:21;101567.38;;;6.74;71.34
19811;BME280;10065;49.632;8.346;2023-01-31T00:18:50;101563.59;;;6.78;71.04
19811;BME280;10065;49.632;8.346;2023-01-31T00:21:19;101567.94;;;6.65;71.33
19811;BME280;10065;49.632;8.346;2023-01-31T00:23:48;101572.56;;;6.61;71.45
19811;BME280;10065;49.632;8.346;2023-01-31T00:26:18;101565.41;;;6.63;71.25
19811;BME280;10065;49.632;8.346;2023-01-31T00:28:49;101565.22;;;6.66;71.18
19811;BME280;10065;49.632;8.346;2023-01-31T00:31:18;101567.94;;;6.65;71.20
19811;BME280;10065;49.632;8.346;2023-01-31T00:33:47;101568.13;;;6.62;70.97
19811;BME280;10065;49.632;8.346;2023-01-31T00:36:17;101574.66;;;6.56;71.45
19811;BME280;10065;49.632;8.346;2023-01-31T00:38:47;101567.50;;;6.58;71.35
19811;BME280;10065;49.632;8.346;2023-01-31T00:41:16;101562.31;;;6.57;71.34
19811;BME280;10065;49.632;8.346;2023-01-31T00:43:44;101552.91;;;6.53;71.35
19811;BME280;10065;49.632;8.346;2023-01-31T00:46:13;101551.09;;;6.53;71.28
19811;BME280;10065;49.632;8.346;2023-01-31T00:48:41;101556.03;;;6.59;71.25
19811;BME280;10065;49.632;8.346;2023-01-31T00:51:09;101554.97;;;6.48;71.21
19811;BME280;10065;49.632;8.346;2023-01-31T00:53:37;101564.38;;;6.52;71.22
19811;BME280;10065;49.632;8.346;2023-01-31T00:56:07;101559.22;;;6.50;71.50
19811;BME280;10065;49.632;8.346;2023-01-31T00:58:35;101554.97;;;6.48;71.39
19811;BME280;10065;49.632;8.346;2023-01-31T01:01:06;101551.41;;;6.49;70.88
19811;BME280;10065;49.632;8.346;2023-01-31T01:03:36;101553.97;;;6.50;70.61
19811;BME280;10065;49.632;8.346;2023-01-31T01:06:05;101550.84;;;6.43;70.91
19811;BME280;10065;49.632;8.346;2023-01-31T01:08:34;101559.88;;;6.39;70.82
19811;BME280;10065;49.632;8.346;2023-01-31T01:11:06;101558.66;;;6.31;71.28
19811;BME280;10065;49.632;8.346;2023-01-31T01:13:34;101566.66;;;6.29;71.46
19811;BME280;10065;49.632;8.346;2023-01-31T01:16:04;101561.56;;;6.26;71.40
19811;BME280;10065;49.632;8.346;2023-01-31T01:18:33;101568.81;;;6.23;71.10
19811;BME280;10065;49.632;8.346;2023-01-31T01:21:08;101563.34;;;6.12;71.66
19811;BME280;10065;49.632;8.346;2023-01-31T01:23:37;101564.47;;;6.08;71.86
19811;BME280;10065;49.632;8.346;2023-01-31T01:26:12;101581.13;;;6.08;71.93
19811;BME280;10065;49.632;8.346;2023-01-31T01:28:40;101578.47;;;6.08;71.41
19811;BME280;10065;49.632;8.346;2023-01-31T01:31:10;101577.38;;;5.98;71.55
19811;BME280;10065;49.632;8.346;2023-01-31T01:33:38;101573.63;;;5.86;71.90
19811;BME280;10065;49.632;8.346;2023-01-31T01:36:09;101579.00;;;5.85;72.33
19811;BME280;10065;49.632;8.346;2023-01-31T01:38:39;101584.41;;;5.82;72.32
19811;BME280;10065;49.632;8.346;2023-01-31T01:41:08;101574.34;;;5.74;72.42
19811;BME280;10065;49.632;8.346;2023-01-31T01:43:41;101573.50;;;5.74;72.55
19811;BME280;10065;49.632;8.346;2023-01-31T01:46:12;101575.41;;;5.72;72.79
19811;BME280;10065;49.632;8.346;2023-01-31T01:48:41;101586.09;;;5.68;72.92
19811;BME280;10065;49.632;8.346;2023-01-31T01:51:13;101583.63;;;5.65;73.08
19811;BME280;10065;49.632;8.346;2023-01-31T01:53:47;101586.94;;;5.69;72.80
19811;BME280;10065;49.632;8.346;2023-01-31T01:56:19;101584.56;;;5.64;72.61
19811;BME280;10065;49.632;8.346;2023-01-31T01:58:52;101584.56;;;5.64;72.54
19811;BME280;10065;49.632;8.346;2023-01-31T02:01:21;101589.84;;;5.64;72.10
19811;BME280;10065;49.632;8.346;2023-01-31T02:03:52;101588.56;;;5.72;72.06
19811;BME280;10065;49.632;8.346;2023-01-31T02:06:21;101582.16;;;5.76;71.35
19811;BME280;10065;49.632;8.346;2023-01-31T02:08:49;101589.50;;;5.71;71.29
19811;BME280;10065;49.632;8.346;2023-01-31T02:11:20;101592.13;;;5.71;71.18
19811;BME280;10065;49.632;8.346;2023-01-31T02:13:51;101584.31;;;5.69;70.54
19811;BME280;10065;49.632;8.346;2023-01-31T02:16:19;101580.03;;;5.52;71.15
19811;BME280;10065;49.632;8.346;2023-01-31T02:18:47;101573.25;;;5.48;71.71
19811;BME280;10065;49.632;8.346;2023-01-31T02:24:53;101578.09;;;5.40;71.51
19811;BME280;10065;49.632;8.346;2023-01-31T02:33:51;101582.59;;;5.38;71.11
19811;BME280;10065;49.632;8.346;2023-01-31T02:36:29;101588.06;;;5.35;71.72
19811;BME280;10065;49.632;8.346;2023-01-31T02:39:05;101576.31;;;5.41;71.19
19811;BME280;10065;49.632;8.346;2023-01-31T02:41:39;101576.69;;;5.35;70.88
19811;BME280;10065;49.632;8.346;2023-01-31T02:44:14;101578.50;;;5.18;71.73
19811;BME280;10065;49.632;8.346;2023-01-31T02:47:16;101571.44;;;5.03;72.04
19811;BME280;10065;49.632;8.346;2023-01-31T02:49:50;101568.75;;;5.05;72.73
19811;BME280;10065;49.632;8.346;2023-01-31T02:52:29;101569.91;;;5.15;72.54
19811;BME280;10065;49.632;8.346;2023-01-31T02:55:05;101569.00;;;5.16;72.07
19811;BME280;10065;49.632;8.346;2023-01-31T02:57:54;101569.06;;;5.14;72.37
19811;BME280;10065;49.632;8.346;2023-01-31T03:00:23;101569.06;;;5.14;72.58
19811;BME280;10065;49.632;8.346;2023-01-31T03:02:52;101567.38;;;5.13;72.74
19811;BME280;10065;49.632;8.346;2023-01-31T03:05:21;101573.31;;;5.17;72.75
19811;BME280;10065;49.632;8.346;2023-01-31T03:07:52;101579.22;;;5.20;72.77
19811;BME280;10065;49.632;8.346;2023-01-31T03:10:32;101568.06;;;5.17;72.64
19811;BME280;10065;49.632;8.346;2023-01-31T03:13:16;101575.25;;;5.13;72.74
19811;BME280;10065;49.632;8.346;2023-01-31T03:15:57;101596.22;;;5.15;73.09
19811;BME280;10065;49.632;8.346;2023-01-31T03:18:52;101587.41;;;5.16;72.99
19811;BME280;10065;49.632;8.346;2023-01-31T03:21:29;101586.63;;;5.14;73.04
19811;BME280;10065;49.632;8.346;2023-01-31T03:23:59;101586.63;;;5.14;72.91
19811;BME280;10065;49.632;8.346;2023-01-31T03:26:28;101598.06;;;5.13;72.92
19811;BME280;10065;49.632;8.346;2023-01-31T03:28:58;101593.66;;;5.13;72.90
19811;BME280;10065;49.632;8.346;2023-01-31T03:31:29;101596.63;;;5.23;72.45
19811;BME280;10065;49.632;8.346;2023-01-31T03:34:02;101601.47;;;5.15;72.44
19811;BME280;10065;49.632;8.346;2023-01-31T03:36:35;101603.34;;;5.13;72.54
19811;BME280;10065;49.632;8.346;2023-01-31T03:39:13;101604.19;;;5.13;72.42
19811;BME280;10065;49.632;8.346;2023-01-31T03:41:53;101615.81;;;5.25;72.09
19811;BME280;10065;49.632;8.346;2023-01-31T03:44:29;101619.63;;;5.35;71.63
19811;BME280;10065;49.632;8.346;2023-01-31T03:47:04;101623.19;;;5.34;71.18
19811;BME280;10065;49.632;8.346;2023-01-31T03:49:33;101623.84;;;5.38;70.90
19811;BME280;10065;49.632;8.346;2023-01-31T03:52:06;101629.28;;;5.35;70.53
19811;BME280;10065;49.632;8.346;2023-01-31T03:54:39;101633.72;;;5.18;70.80
19811;BME280;10065;49.632;8.346;2023-01-31T03:57:13;101633.19;;;5.12;71.53
19811;BME280;10065;49.632;8.346;2023-01-31T03:59:46;101634.31;;;5.08;71.70
19811;BME280;10065;49.632;8.346;2023-01-31T04:02:20;101635.72;;;5.13;71.81
19811;BME280;10065;49.632;8.346;2023-01-31T04:04:53;101630.91;;;5.21;71.71
19811;BME280;10065;49.632;8.346;2023-01-31T04:07:23;101626.41;;;5.23;71.33
19811;BME280;10065;49.632;8.346;2023-01-31T04:09:51;101624.38;;;5.13;71.63
19811;BME280;10065;49.632;8.346;2023-01-31T04:12:19;101631.69;;;5.08;72.37
19811;BME280;10065;49.632;8.346;2023-01-31T04:14:46;101628.13;;;5.09;72.59
19811;BME280;10065;49.632;8.346;2023-01-31T04:17:14;101630.81;;;5.23;71.67
19811;BME280;10065;49.632;8.346;2023-01-31T04:19:42;101626.06;;;5.14;71.73
19811;BME280;10065;49.632;8.346;2023-01-31T04:22:10;101635.59;;;5.01;72.28
19811;BME280;10065;49.632;8.346;2023-01-31T04:24:39;101630.47;;;4.98;72.75
19811;BME280;10065;49.632;8.346;2023-01-31T04:27:07;101628.28;;;5.06;72.46
19811;BME280;10065;49.632;8.346;2023-01-31T04:29:35;101632.25;;;5.13;71.99
19811;BME280;10065;49.632;8.346;2023-01-31T04:32:03;101637.78;;;5.08;71.99
19811;BME280;10065;49.632;8.346;2023-01-31T04:34:31;101629.63;;;5.13;72.11
19811;BME280;10065;49.632;8.346;2023-01-31T04:36:59;101630.25;;;5.18;71.57
19811;BME280;10065;49.632;8.346;2023-01-31T04:39:27;101626.22;;;5.11;71.75
19811;BME280;10065;49.632;8.346;2023-01-31T04:41:56;101612.84;;;5.00;72.66
19811;BME280;10065;49.632;8.346;2023-01-31T04:44:24;101614.19;;;5.07;72.41
19811;BME280;10065;49.632;8.346;2023-01-31T04:46:51;101609.44;;;4.98;73.09
19811;BME280;10065;49.632;8.346;2023-01-31T04:49:19;101610.66;;;4.92;73.27
19811;BME280;10065;49.632;8.346;2023-01-31T04:51:47;101611.66;;;4.89;73.63
19811;BME280;10065;49.632;8.346;2023-01-31T04:54:17;101613.50;;;4.87;73.99
19811;BME280;10065;49.632;8.346;2023-01-31T04:56:45;101606.22;;;4.92;73.99
19811;BME280;10065;49.632;8.346;2023-01-31T04:59:14;101616.22;;;5.02;73.22
19811;BME280;10065;49.632;8.346;2023-01-31T05:01:42;101622.16;;;4.89;73.47
19811;BME280;10065;49.632;8.346;2023-01-31T05:04:09;101604.19;;;4.98;73.10
19811;BME280;10065;49.632;8.346;2023-01-31T05:06:38;101604.28;;;4.96;73.23
19811;BME280;10065;49.632;8.346;2023-01-31T05:09:05;101605.53;;;5.05;72.97
19811;BME280;10065;49.632;8.346;2023-01-31T05:11:33;101609.28;;;5.01;73.01
19811;BME280;10065;49.632;8.346;2023-01-31T05:14:01;101599.72;;;5.00;72.74
19811;BME280;10065;49.632;8.346;2023-01-31T05:16:30;101597.59;;;4.90;73.16
19811;BME280;10065;49.632;8.346;2023-01-31T05:18:58;101596.03;;;4.86;73.64
19811;BME280;10065;49.632;8.346;2023-01-31T05:21:26;101607.06;;;4.93;73.29
19811;BME280;10065;49.632;8.346;2023-01-31T05:23:54;101596.31;;;4.98;72.88
19811;BME280;10065;49.632;8.346;2023-01-31T05:26:22;101596.22;;;4.99;72.71
19811;BME280;10065;49.632;8.346;2023-01-31T05:28:49;101598.66;;;4.86;73.17
19811;BME280;10065;49.632;8.346;2023-01-31T05:31:17;101592.25;;;4.92;73.31
19811;BME280;10065;49.632;8.346;2023-01-31T05:33:46;101601.06;;;4.91;73.06
19811;BME280;10065;49.632;8.346;2023-01-31T05:36:14;101595.81;;;4.91;73.25
19811;BME280;10065;49.632;8.346;2023-01-31T05:38:42;101583.50;;;4.91;72.96
19811;BME280;10065;49.632;8.346;2023-01-31T05:41:10;101579.34;;;4.87;73.15
19811;BME280;10065;49.632;8.346;2023-01-31T05:43:38;101589.09;;;4.85;73.34
19811;BME280;10065;49.632;8.346;2023-01-31T05:46:05;101594.09;;;4.74;73.68
19811;BME280;10065;49.632;8.346;2023-01-31T05:48:33;101581.91;;;4.73;73.91
19811;BME280;10065;49.632;8.346;2023-01-31T05:51:03;101586.38;;;4.71;74.21
19811;BME280;10065;49.632;8.346;2023-01-31T05:53:30;101581.47;;;4.81;73.74
19811;BME280;10065;49.632;8.346;2023-01-31T05:55:58;101595.38;;;4.83;73.87
19811;BME280;10065;49.632;8.346;2023-01-31T05:58:26;101593.41;;;4.86;74.03
19811;BME280;10065;49.632;8.346;2023-01-31T06:00:54;101583.16;;;4.98;73.32
19811;BME280;10065;49.632;8.346;2023-01-31T06:03:22;101585.19;;;5.08;72.97
19811;BME280;10065;49.632;8.346;2023-01-31T06:05:50;101603.00;;;5.19;72.70
19811;BME280;10065;49.632;8.346;2023-01-31T06:08:19;101607.00;;;5.26;72.45
19811;BME280;10065;49.632;8.346;2023-01-31T06:10:47;101609.41;;;5.29;72.41
19811;BME280;10065;49.632;8.346;2023-01-31T06:13:15;101601.28;;;5.34;71.98
19811;BME280;10065;49.632;8.346;2023-01-31T06:15:43;101605.00;;;5.29;72.24
19811;BME280;10065;49.632;8.346;2023-01-31T06:18:11;101601.94;;;5.37;71.71
19811;BME280;10065;49.632;8.346;2023-01-31T06:20:39;101595.53;;;5.27;72.27
19811;BME280;10065;49.632;8.346;2023-01-31T06:23:07;101592.31;;;5.22;72.68
19811;BME280;10065;49.632;8.346;2023-01-31T06:25:36;101599.59;;;5.33;72.54
19811;BME280;10065;49.632;8.346;2023-01-31T06:28:04;101587.97;;;5.21;72.45
19811;BME280;10065;49.632;8.346;2023-01-31T06:30:32;101595.69;;;5.24;72.65
19811;BME280;10065;49.632;8.346;2023-01-31T06:33:00;101594.69;;;5.26;72.70
19811;BME280;10065;49.632;8.346;2023-01-31T06:35:28;101596.53;;;5.24;72.53
19811;BME280;10065;49.632;8.346;2023-01-31T06:37:56;101591.38;;;5.23;72.60
19811;BME280;10065;49.632;8.346;2023-01-31T06:40:24;101601.47;;;5.15;72.90
19811;BME280;10065;49.632;8.346;2023-01-31T06:42:53;101598.75;;;5.16;72.95
19811;BME280;10065;49.632;8.346;2023-01-31T06:45:21;101595.53;;;5.11;72.95
19811;BME280;10065;49.632;8.346;2023-01-31T06:47:49;101596.78;;;5.20;72.92
19811;BME280;10065;49.632;8.346;2023-01-31T06:50:17;101603.53;;;5.10;73.01
19811;BME280;10065;49.632;8.346;2023-01-31T06:52:45;101612.50;;;5.06;72.96
19811;BME280;10065;49.632;8.346;2023-01-31T06:55:13;101604.13;;;4.99;73.34
19811;BME280;10065;49.632;8.346;2023-01-31T06:57:47;101606.06;;;4.96;73.75
19811;BME280;10065;49.632;8.346;2023-01-31T07:00:18;101615.28;;;5.03;73.38
19811;BME280;10065;49.632;8.346;2023-01-31T07:02:47;101620.22;;;5.09;72.96
19811;BME280;10065;49.632;8.346;2023-01-31T07:05:15;101622.00;;;5.08;72.60
19811;BME280;10065;49.632;8.346;2023-01-31T07:07:44;101616.72;;;4.92;72.67
19811;BME280;10065;49.632;8.346;2023-01-31T07:10:12;101629.13;;;4.90;72.94
19811;BME280;10065;49.632;8.346;2023-01-31T07:12:39;101637.44;;;4.83;73.05
19811;BME280;10065;49.632;8.346;2023-01-31T07:15:08;101650.38;;;4.86;73.09
19811;BME280;10065;49.632;8.346;2023-01-31T07:17:41;101645.22;;;4.84;73.05
19811;BME280;10065;49.632;8.346;2023-01-31T07:20:10;101646.91;;;4.85;72.91
19811;BME280;10065;49.632;8.346;2023-01-31T07:22:38;101666.41;;;4.81;72.74
19811;BME280;10065;49.632;8.346;2023-01-31T07:25:08;101664.34;;;4.71;73.13
19811;BME280;10065;49.632;8.346;2023-01-31T07:27:36;101671.25;;;4.73;72.93
19811;BME280;10065;49.632;8.346;2023-01-31T07:30:05;101669.28;;;4.77;72.56
19811;BME280;10065;49.632;8.346;2023-01-31T07:32:32;101669.03;;;4.66;72.83
19811;BME280;10065;49.632;8.346;2023-01-31T07:35:02;101675.09;;;4.66;73.12
19811;BME280;10065;49.632;8.346;2023-01-31T07:37:30;101668.00;;;4.68;72.93
19811;BME280;10065;49.632;8.346;2023-01-31T07:39:57;101671.31;;;4.72;72.66
19811;BME280;10065;49.632;8.346;2023-01-31T07:42:26;101672.16;;;4.72;72.59
19811;BME280;10065;49.632;8.346;2023-01-31T07:44:55;101671.81;;;4.63;72.87
19811;BME280;10065;49.632;8.346;2023-01-31T07:47:23;101659.03;;;4.72;72.71
19811;BME280;10065;49.632;8.346;2023-01-31T07:49:50;101660.97;;;4.84;72.32
19811;BME280;10065;49.632;8.346;2023-01-31T07:52:19;101655.22;;;4.93;71.82
19811;BME280;10065;49.632;8.346;2023-01-31T07:54:47;101657.00;;;4.93;71.35
19811;BME280;10065;49.632;8.346;2023-01-31T07:57:15;101664.03;;;4.92;71.79
19811;BME280;10065;49.632;8.346;2023-01-31T07:59:43;101667.13;;;5.01;71.17
19811;BME280;10065;49.632;8.346;2023-01-31T08:02:12;101678.13;;;4.91;71.46
19811;BME280;10065;49.632;8.346;2023-01-31T08:04:58;101674.75;;;4.89;71.48
19811;BME280;10065;49.632;8.346;2023-01-31T08:07:28;101672.19;;;4.88;71.55
19811;BME280;10065;49.632;8.346;2023-01-31T08:09:56;101678.13;;;4.91;71.38
19811;BME280;10065;49.632;8.346;2023-01-31T08:12:23;101683.41;;;4.91;71.51
19811;BME280;10065;49.632;8.346;2023-01-31T08:14:51;101671.44;;;5.02;71.83
19811;BME280;10065;49.632;8.346;2023-01-31T08:17:19;101678.41;;;5.18;70.93
19811;BME280;10065;49.632;8.346;2023-01-31T08:19:46;101677.56;;;5.18;70.76
19811;BME280;10065;49.632;8.346;2023-01-31T08:22:14;101667.47;;;5.26;70.84
19811;BME280;10065;49.632;8.346;2023-01-31T08:24:43;101665.53;;;5.45;70.31
19811;BME280;10065;49.632;8.346;2023-01-31T08:27:11;101662.34;;;5.54;69.62
19811;BME280;10065;49.632;8.346;2023-01-31T08:29:39;101660.66;;;5.38;69.79
19811;BME280;10065;49.632;8.346;2023-01-31T08:32:07;101673.06;;;5.51;69.97
19811;BME280;10065;49.632;8.346;2023-01-31T08:34:34;101666.16;;;5.64;69.61
19811;BME280;10065;49.632;8.346;2023-01-31T08:37:02;101671.25;;;5.67;69.14
19811;BME280;10065;49.632;8.346;2023-01-31T08:39:30;101671.34;;;5.66;69.11
19811;BME280;10065;49.632;8.346;2023-01-31T08:41:59;101669.78;;;5.78;69.00
19811;BME280;10065;49.632;8.346;2023-01-31T08:44:27;101662.81;;;5.77;68.71
19811;BME280;10065;49.632;8.346;2023-01-31T08:46:55;101662.81;;;5.77;68.90
19811;BME280;10065;49.632;8.346;2023-01-31T08:49:24;101658.97;;;5.82;68.67
19811;BME280;10065;49.632;8.346;2023-01-31T08:51:52;101648.91;;;5.75;69.06
19811;BME280;10065;49.632;8.346;2023-01-31T08:54:20;101650.88;;;5.71;69.70
19811;BME280;10065;49.632;8.346;2023-01-31T08:56:47;101657.72;;;5.74;70.32
19811;BME280;10065;49.632;8.346;2023-01-31T08:59:17;101664.31;;;5.81;70.59
19811;BME280;10065;49.632;8.346;2023-01-31T09:01:44;101679.97;;;5.84;70.84
19811;BME280;10065;49.632;8.346;2023-01-31T09:04:13;101680.59;;;5.89;70.65
19811;BME280;10065;49.632;8.346;2023-01-31T09:06:41;101676.25;;;5.88;71.04
19811;BME280;10065;49.632;8.346;2023-01-31T09:09:09;101673.25;;;5.94;71.01
19811;BME280;10065;49.632;8.346;2023-01-31T09:11:37;101679.28;;;5.96;71.18
19811;BME280;10065;49.632;8.346;2023-01-31T09:14:05;101679.84;;;6.01;71.15
19811;BME280;10065;49.632;8.346;2023-01-31T09:16:34;101680.47;;;6.06;71.40
19811;BME280;10065;49.632;8.346;2023-01-31T09:19:02;101671.91;;;6.17;71.16
19811;BME280;10065;49.632;8.346;2023-01-31T09:21:29;101656.94;;;6.17;71.45
19811;BME280;10065;49.632;8.346;2023-01-31T09:23:59;101663.09;;;6.32;71.17
19811;BME280;10065;49.632;8.346;2023-01-31T09:26:29;101650.97;;;6.43;70.92
19811;BME280;10065;49.632;8.346;2023-01-31T09:28:58;101646.19;;;6.64;70.44
19811;BME280;10065;49.632;8.346;2023-01-31T09:31:27;101644.75;;;6.73;69.58
19811;BME280;10065;49.632;8.346;2023-01-31T09:33:57;101638.91;;;6.82;69.26
19811;BME280;10065;49.632;8.346;2023-01-31T09:36:24;101629.28;;;6.95;68.86
19811;BME280;10065;49.632;8.346;2023-01-31T09:38:54;101635.56;;;7.21;67.56
19811;BME280;10065;49.632;8.346;2023-01-31T09:41:27;101634.16;;;7.42;66.52
19811;BME280;10065;49.632;8.346;2023-01-31T09:44:00;101635.50;;;7.35;66.36
19811;BME280;10065;49.632;8.346;2023-01-31T09:46:34;101629.97;;;7.26;66.98
19811;BME280;10065;49.632;8.346;2023-01-31T09:49:06;101644.69;;;7.30;66.92
19811;BME280;10065;49.632;8.346;2023-01-31T09:51:37;101643.16;;;7.26;66.91
19811;BME280;10065;49.632;8.346;2023-01-31T09:54:09;101636.97;;;7.27;66.83
19811;BME280;10065;49.632;8.346;2023-01-31T09:56:50;101633.03;;;7.20;66.78
19811;BME280;10065;49.632;8.346;2023-01-31T09:59:22;101632.53;;;7.13;67.34
19811;BME280;10065;49.632;8.346;2023-01-31T10:01:58;101650.28;;;7.11;67.36
19811;BME280;10065;49.632;8.346;2023-01-31T10:04:41;101657.44;;;7.09;67.76
19811;BME280;10065;49.632;8.346;2023-01-31T10:07:15;101655.66;;;7.09;67.75
19811;BME280;10065;49.632;8.346;2023-01-31T10:09:48;101650.56;;;7.06;67.86
19811;BME280;10065;49.632;8.346;2023-01-31T10:12:23;101656.31;;;6.99;68.38
19811;BME280;10065;49.632;8.346;2023-01-31T10:14:53;101640.22;;;7.03;68.56
19811;BME280;10065;49.632;8.346;2023-01-31T10:17:25;101628.16;;;6.99;68.81
19811;BME280;10065;49.632;8.346;2023-01-31T10:19:59;101627.41;;;6.97;69.32
19811;BME280;10065;49.632;8.346;2023-01-31T10:22:35;101632.09;;;7.06;68.70
19811;BME280;10065;49.632;8.346;2023-01-31T10:25:16;101650.91;;;7.14;68.62
19811;BME280;10065;49.632;8.346;2023-01-31T10:27:49;101647.78;;;7.22;68.20
19811;BME280;10065;49.632;8.346;2023-01-31T10:30:21;101633.03;;;7.20;68.13
19811;BME280;10065;49.632;8.346;2023-01-31T10:32:55;101624.94;;;7.08;68.03
19811;BME280;10065;49.632;8.346;2023-01-31T10:35:28;101641.16;;;7.02;68.33
19811;BME280;10065;49.632;8.346;2023-01-31T10:38:03;101647.06;;;7.06;68.17
19811;BME280;10065;49.632;8.346;2023-01-31T10:40:35;101630.41;;;7.05;68.07
19811;BME280;10065;49.632;8.346;2023-01-31T10:43:13;101628.03;;;7.15;68.33
19811;BME280;10065;49.632;8.346;2023-01-31T10:45:43;101643.34;;;7.23;67.89
19811;BME280;10065;49.632;8.346;2023-01-31T10:48:14;101642.41;;;7.24;68.04
19811;BME280;10065;49.632;8.346;2023-01-31T10:51:00;101637.34;;;7.21;67.93
19811;BME280;10065;49.632;8.346;2023-01-31T10:53:38;101634.50;;;7.24;67.79
19811;BME280;10065;49.632;8.346;2023-01-31T10:56:15;101642.41;;;7.24;68.06
19811;BME280;10065;49.632;8.346;2023-01-31T10:58:46;101635.66;;;7.20;68.07
19811;BME280;10065;49.632;8.346;2023-01-31T11:01:14;101620.97;;;7.15;68.31
19811;BME280;10065;49.632;8.346;2023-01-31T11:03:53;101620.78;;;7.18;68.16
19811;BME280;10065;49.632;8.346;2023-01-31T11:06:23;101618.97;;;7.19;68.29
19811;BME280;10065;49.632;8.346;2023-01-31T11:08:54;101604.84;;;7.20;68.36
19811;BME280;10065;49.632;8.346;2023-01-31T11:11:25;101586.81;;;7.27;68.00
19811;BME280;10065;49.632;8.346;2023-01-31T11:13:56;101575.84;;;7.33;67.84
19811;BME280;10065;49.632;8.346;2023-01-31T11:16:26;101556.44;;;7.34;67.40
19811;BME280;10065;49.632;8.346;2023-01-31T11:18:57;101554.13;;;7.29;67.56
19811;BME280;10065;49.632;8.346;2023-01-31T11:21:29;101545.03;;;7.33;67.85
19811;BME280;10065;49.632;8.346;2023-01-31T11:24:00;101546.31;;;7.28;67.78
19811;BME280;10065;49.632;8.346;2023-01-31T11:26:31;101545.22;;;7.30;68.16
19811;BME280;10065;49.632;8.346;2023-01-31T11:29:01;101543.25;;;7.34;67.88
19811;BME280;10065;49.632;8.346;2023-01-31T11:31:39;101546.31;;;7.28;68.23
19811;BME280;10065;49.632;8.346;2023-01-31T11:34:18;101547.16;;;7.28;68.25
19811;BME280;10065;49.632;8.346;2023-01-31T11:36:48;101544.59;;;7.27;68.22
19811;BME280;10065;49.632;8.346;2023-01-31T11:39:25;101523.50;;;7.27;68.31
19811;BME280;10065;49.632;8.346;2023-01-31T11:41:54;101506.41;;;7.32;68.10
19811;BME280;10065;49.632;8.346;2023-01-31T11:44:22;101500.09;;;7.35;67.80
19811;BME280;10065;49.632;8.346;2023-01-31T11:46:52;101488.59;;;7.36;67.34
19811;BME280;10065;49.632;8.346;2023-01-31T11:49:27;101484.88;;;7.26;67.60
19811;BME280;10065;49.632;8.346;2023-01-31T11:51:58;101480.97;;;7.18;67.66
19811;BME280;10065;49.632;8.346;2023-01-31T11:54:28;101492.88;;;7.11;68.25
19811;BME280;10065;49.632;8.346;2023-01-31T11:56:58;101502.34;;;7.14;68.30
19811;BME280;10065;49.632;8.346;2023-01-31T11:59:28;101495.63;;;7.23;68.34
19811;BME280;10065;49.632;8.346;2023-01-31T12:01:58;101494.38;;;7.28;68.16
19811;BME280;10065;49.632;8.346;2023-01-31T12:04:30;101478.97;;;7.35;67.94
19811;BME280;10065;49.632;8.346;2023-01-31T12:07:05;101468.09;;;7.39;67.47
19811;BME280;10065;49.632;8.346;2023-01-31T12:09:46;101473.69;;;7.35;67.54
19811;BME280;10065;49.632;8.346;2023-01-31T12:12:32;101465.25;;;7.30;67.53
19811;BME280;10065;49.632;8.346;2023-01-31T12:15:02;101468.44;;;7.35;67.56
19811;BME280;10065;49.632;8.346;2023-01-31T12:17:35;101462.94;;;7.38;67.34
19811;BME280;10065;49.632;8.346;2023-01-31T12:20:16;101456.41;;;7.43;67.13
19811;BME280;10065;49.632;8.346;2023-01-31T12:23:01;101440.47;;;7.45;66.71
19811;BME280;10065;49.632;8.346;2023-01-31T12:25:45;101435.50;;;7.40;66.98
19811;BME280;10065;49.632;8.346;2023-01-31T12:28:27;101437.72;;;7.46;66.68
19811;BME280;10065;49.632;8.346;2023-01-31T12:31:13;101455.78;;;7.52;66.52
19811;BME280;10065;49.632;8.346;2023-01-31T12:33:58;101454.09;;;7.51;66.43
19811;BME280;10065;49.632;8.346;2023-01-31T12:36:39;101438.25;;;7.51;66.42
19811;BME280;10065;49.632;8.346;2023-01-31T12:39:30;101436.56;;;7.50;66.39
19811;BME280;10065;49.632;8.346;2023-01-31T12:42:17;101419.13;;;7.48;66.47
19811;BME280;10065;49.632;8.346;2023-01-31T12:44:56;101408.28;;;7.52;66.37
19811;BME280;10065;49.632;8.346;2023-01-31T12:47:44;101415.78;;;7.46;66.38
19811;BME280;10065;49.632;8.346;2023-01-31T12:50:26;101413.00;;;7.35;66.76
19811;BME280;10065;49.632;8.346;2023-01-31T12:53:20;101421.34;;;7.29;66.79
19811;BME280;10065;49.632;8.346;2023-01-31T12:56:05;101415.34;;;7.27;67.11
19811;BME280;10065;49.632;8.346;2023-01-31T12:58:47;101397.28;;;7.33;67.00
19811;BME280;10065;49.632;8.346;2023-01-31T13:01:19;101385.69;;;7.36;66.99
19811;BME280;10065;49.632;8.346;2023-01-31T13:04:02;101372.38;;;7.37;67.15
19811;BME280;10065;49.632;8.346;2023-01-31T13:06:36;101365.63;;;7.46;66.95
19811;BME280;10065;49.632;8.346;2023-01-31T13:09:10;101380.72;;;7.44;67.10
19811;BME280;10065;49.632;8.346;2023-01-31T13:11:45;101377.44;;;7.40;67.37
19811;BME280;10065;49.632;8.346;2023-01-31T13:14:19;101371.53;;;7.37;67.47
19811;BME280;10065;49.632;8.346;2023-01-31T13:16:51;101368.81;;;7.38;67.65
19811;BME280;10065;49.632;8.346;2023-01-31T13:19:25;101372.50;;;7.36;67.74
19811;BME280;10065;49.632;8.346;2023-01-31T13:21:57;101378.19;;;7.42;67.67
19811;BME280;10065;49.632;8.346;2023-01-31T13:24:30;101366.78;;;7.42;67.62
19811;BME280;10065;49.632;8.346;2023-01-31T13:27:05;101354.63;;;7.52;67.91
19811;BME280;10065;49.632;8.346;2023-01-31T13:29:40;101364.22;;;7.66;67.47
19811;BME280;10065;49.632;8.346;2023-01-31T13:32:14;101361.16;;;7.72;67.37